createdAt,value
2022-10-09T00:01:58.655Z,7.30
2022-10-09T00:04:29.957Z,6.20
2022-10-09T00:07:01.243Z,6.50
2022-10-09T00:09:32.493Z,6.60
2022-10-09T00:12:03.705Z,6.60
2022-10-09T00:14:35.293Z,6.30
2022-10-09T00:17:06.969Z,7.20
2022-10-09T00:19:38.239Z,7.20
2022-10-09T00:22:09.775Z,7.90
2022-10-09T00:24:41.628Z,6.70
2022-10-09T00:27:13.072Z,7.30
2022-10-09T00:29:44.227Z,6.30
2022-10-09T00:32:15.467Z,6.90
2022-10-09T00:34:46.966Z,6.50
2022-10-09T00:37:20.195Z,6.70
2022-10-09T00:39:51.453Z,7.20
2022-10-09T00:42:22.995Z,6.20
2022-10-09T00:45:00.294Z,7.00
2022-10-09T00:47:37.584Z,7.20
2022-10-09T00:50:15.491Z,6.50
2022-10-09T00:52:47.406Z,6.50
2022-10-09T00:55:19.213Z,6.20
2022-10-09T00:57:51.491Z,6.50
2022-10-09T01:00:23.273Z,6.10
2022-10-09T01:02:54.884Z,6.60
2022-10-09T01:05:34.437Z,5.90
2022-10-09T01:08:11.874Z,6.30
2022-10-09T01:10:51.699Z,6.00
2022-10-09T01:13:29.533Z,6.40
2022-10-09T01:16:05.060Z,6.90
2022-10-09T01:18:45.138Z,6.50
2022-10-09T01:21:21.269Z,6.50
2022-10-09T01:24:09.045Z,6.30
2022-10-09T01:27:01.737Z,6.30
2022-10-09T01:29:37.801Z,6.20
2022-10-09T01:32:11.350Z,6.50
2022-10-09T01:37:44.161Z,6.40
2022-10-09T01:40:18.238Z,6.50
2022-10-09T01:42:49.807Z,6.10
2022-10-09T01:45:21.625Z,6.10
2022-10-09T01:47:53.128Z,5.50
2022-10-09T01:50:28.535Z,5.80
2022-10-09T01:53:03.071Z,5.60
2022-10-09T01:55:41.424Z,5.30
2022-10-09T01:58:20.750Z,5.60
2022-10-09T02:00:58.407Z,5.60
2022-10-09T02:03:32.898Z,5.40
2022-10-09T02:06:05.169Z,5.30
2022-10-09T02:08:38.902Z,4.70
2022-10-09T02:11:11.656Z,5.20
2022-10-09T02:13:43.811Z,5.20
2022-10-09T02:16:20.269Z,5.30
2022-10-09T02:18:59.606Z,4.80
2022-10-09T02:21:40.151Z,5.40
2022-10-09T02:24:15.564Z,4.90
2022-10-09T02:26:46.911Z,4.50
2022-10-09T02:29:18.910Z,4.90
2022-10-09T02:31:50.360Z,4.40
2022-10-09T02:34:22.668Z,5.30
2022-10-09T02:36:53.949Z,4.60
2022-10-09T02:39:25.342Z,5.00
2022-10-09T02:41:56.711Z,4.40
2022-10-09T02:44:28.460Z,5.00
2022-10-09T02:47:00.210Z,4.70
2022-10-09T02:49:31.397Z,4.60
2022-10-09T02:52:02.763Z,4.80
2022-10-09T02:54:34.089Z,4.70
2022-10-09T02:57:05.432Z,4.90
2022-10-09T02:59:37.126Z,4.70
2022-10-09T03:02:08.315Z,4.60
2022-10-09T03:04:39.702Z,4.50
2022-10-09T03:07:11.589Z,4.60
2022-10-09T03:09:43.168Z,5.20
2022-10-09T03:12:16.361Z,5.00
2022-10-09T03:14:47.557Z,5.20
2022-10-09T03:17:18.809Z,5.60
2022-10-09T03:19:52.950Z,5.70
2022-10-09T03:22:30.259Z,5.30
2022-10-09T03:25:01.707Z,4.90
2022-10-09T03:27:33.441Z,5.40
2022-10-09T03:30:05.194Z,5.70
2022-10-09T03:32:36.582Z,5.80
2022-10-09T03:35:10.858Z,5.20
2022-10-09T03:37:42.099Z,5.80
2022-10-09T03:40:15.148Z,6.20
2022-10-09T03:42:46.649Z,5.60
2022-10-09T03:45:18.583Z,6.10
2022-10-09T03:47:49.860Z,5.70
2022-10-09T03:50:21.079Z,6.00
2022-10-09T03:52:52.704Z,5.90
2022-10-09T03:55:24.297Z,5.70
2022-10-09T03:57:55.517Z,5.90
2022-10-09T04:00:27.148Z,6.20
2022-10-09T04:02:58.554Z,6.00
2022-10-09T04:05:30.660Z,5.70
2022-10-09T04:08:02.195Z,6.00
2022-10-09T04:10:33.482Z,6.10
2022-10-09T04:13:05.043Z,6.60
2022-10-09T04:15:37.035Z,6.70
2022-10-09T04:18:09.193Z,5.30
2022-10-09T04:20:40.399Z,5.50
2022-10-09T04:23:11.602Z,5.50
2022-10-09T04:25:43.180Z,5.10
2022-10-09T04:28:14.486Z,5.50
2022-10-09T04:30:45.948Z,4.40
2022-10-09T04:33:17.268Z,4.70
2022-10-09T04:35:51.728Z,4.90
2022-10-09T04:38:23.939Z,4.70
2022-10-09T04:41:02.472Z,4.50
2022-10-09T04:43:34.639Z,4.40
2022-10-09T04:46:09.861Z,3.90
2022-10-09T04:48:45.786Z,4.40
2022-10-09T04:51:18.296Z,4.20
2022-10-09T04:53:50.222Z,4.60
2022-10-09T04:56:24.278Z,4.10
2022-10-09T04:58:56.067Z,4.30
2022-10-09T05:01:33.110Z,4.30
2022-10-09T05:04:08.765Z,4.20
2022-10-09T05:06:40.120Z,4.60
2022-10-09T05:09:11.335Z,4.40
2022-10-09T05:11:43.054Z,4.60
2022-10-09T05:14:14.740Z,3.70
2022-10-09T05:17:08.769Z,4.10
2022-10-09T05:19:37.391Z,4.70
2022-10-09T05:22:08.738Z,4.80
2022-10-09T05:24:40.073Z,4.50
2022-10-09T05:27:11.302Z,4.30
2022-10-09T05:29:42.755Z,4.70
2022-10-09T05:32:15.015Z,4.60
2022-10-09T05:34:46.465Z,5.20
2022-10-09T05:37:17.724Z,5.20
2022-10-09T05:39:49.398Z,5.00
2022-10-09T05:42:20.687Z,4.60
2022-10-09T05:44:52.118Z,5.40
2022-10-09T05:47:23.264Z,5.40
2022-10-09T05:49:54.597Z,5.30
2022-10-09T05:52:25.926Z,5.20
2022-10-09T05:54:57.523Z,4.20
2022-10-09T05:57:29.598Z,6.10
2022-10-09T06:00:01.181Z,5.80
2022-10-09T06:02:32.479Z,5.10
2022-10-09T06:05:04.045Z,5.80
2022-10-09T06:07:35.459Z,6.00
2022-10-09T06:10:07.444Z,5.20
2022-10-09T06:12:38.644Z,5.80
2022-10-09T06:15:11.940Z,6.40
2022-10-09T06:17:43.143Z,6.10
2022-10-09T06:20:15.740Z,6.30
2022-10-09T06:22:47.214Z,6.30
2022-10-09T06:25:18.917Z,6.80
2022-10-09T06:27:50.298Z,5.70
2022-10-09T06:30:21.605Z,6.20
2022-10-09T06:32:52.880Z,6.00
2022-10-09T06:35:24.491Z,5.90
2022-10-09T06:37:55.693Z,5.10
2022-10-09T06:40:27.077Z,5.90
2022-10-09T06:42:58.281Z,5.90
2022-10-09T06:45:29.893Z,5.10
2022-10-09T06:48:01.093Z,5.50
2022-10-09T06:50:32.416Z,6.30
2022-10-09T06:53:03.868Z,6.00
2022-10-09T06:55:35.282Z,5.20
2022-10-09T06:58:06.619Z,5.50
2022-10-09T07:00:38.210Z,6.60
2022-10-09T07:03:09.660Z,6.10
2022-10-09T07:05:41.341Z,5.90
2022-10-09T07:08:12.615Z,5.60
2022-10-09T07:10:43.724Z,6.50
2022-10-09T07:13:15.190Z,6.40
2022-10-09T07:15:49.255Z,6.40
2022-10-09T07:18:20.466Z,5.60
2022-10-09T07:20:51.731Z,6.20
2022-10-09T07:23:23.961Z,6.80
2022-10-09T07:25:55.435Z,6.80
2022-10-09T07:28:28.832Z,6.70
2022-10-09T07:31:03.716Z,6.80
2022-10-09T07:33:35.131Z,6.40
2022-10-09T07:36:08.052Z,7.60
2022-10-09T07:38:39.441Z,6.40
2022-10-09T07:41:12.835Z,6.80
2022-10-09T07:43:44.744Z,7.50
2022-10-09T07:46:18.434Z,6.30
2022-10-09T07:48:51.074Z,6.10
2022-10-09T07:51:24.245Z,5.80
2022-10-09T07:53:57.557Z,7.10
2022-10-09T07:56:31.309Z,5.90
2022-10-09T07:59:04.800Z,7.50
2022-10-09T08:01:37.326Z,6.00
2022-10-09T08:04:09.655Z,5.40
2022-10-09T08:06:41.148Z,6.70
2022-10-09T08:09:12.447Z,6.60
2022-10-09T08:11:44.756Z,6.00
2022-10-09T08:14:19.150Z,6.40
2022-10-09T08:16:51.083Z,7.20
2022-10-09T08:19:22.341Z,9.00
2022-10-09T08:21:54.180Z,7.60
2022-10-09T08:24:25.764Z,6.30
2022-10-09T08:26:57.014Z,6.30
2022-10-09T08:29:28.240Z,7.30
2022-10-09T08:31:59.626Z,7.00
2022-10-09T08:34:31.418Z,6.90
2022-10-09T08:37:02.628Z,5.90
2022-10-09T08:39:33.790Z,6.50
2022-10-09T08:42:06.410Z,7.30
2022-10-09T08:44:42.542Z,6.80
2022-10-09T08:47:21.972Z,5.90
2022-10-09T08:49:57.923Z,7.20
2022-10-09T08:52:36.986Z,7.60
2022-10-09T08:55:16.106Z,7.90
2022-10-09T08:57:51.041Z,7.40
2022-10-09T09:00:24.481Z,9.70
2022-10-09T09:03:28.181Z,7.30
2022-10-09T09:06:04.914Z,7.80
2022-10-09T09:08:46.602Z,8.00
2022-10-09T09:11:29.286Z,7.80
2022-10-09T09:14:13.125Z,5.90
2022-10-09T09:16:51.642Z,6.30
2022-10-09T09:19:44.442Z,6.00
2022-10-09T09:22:17.412Z,6.10
2022-10-09T09:24:52.895Z,6.20
2022-10-09T09:27:29.127Z,6.80
2022-10-09T09:30:04.601Z,6.60
2022-10-09T09:32:36.900Z,6.90
2022-10-09T09:35:20.744Z,5.90
2022-10-09T09:37:52.263Z,6.20
2022-10-09T09:40:36.057Z,5.70
2022-10-09T09:43:18.237Z,7.70
2022-10-09T09:45:50.780Z,10.50
2022-10-09T09:48:29.372Z,6.70
2022-10-09T09:51:23.623Z,8.20
2022-10-09T09:53:55.489Z,13.50
2022-10-09T09:57:06.993Z,6.40
2022-10-09T09:59:37.602Z,8.60
2022-10-09T10:02:16.985Z,9.30
2022-10-09T10:04:58.959Z,7.80
2022-10-09T10:07:35.510Z,6.10
2022-10-09T10:10:15.628Z,8.30
2022-10-09T10:12:49.479Z,13.10
2022-10-09T10:15:25.086Z,11.90
2022-10-09T10:18:03.679Z,16.50
2022-10-09T10:20:44.165Z,11.70
2022-10-09T10:23:26.634Z,21.80
2022-10-09T10:26:02.201Z,11.10
2022-10-09T10:28:37.646Z,8.90
2022-10-09T10:31:17.055Z,9.20
2022-10-09T10:33:52.889Z,8.30
2022-10-09T10:36:25.492Z,9.30
2022-10-09T10:39:03.935Z,9.40
2022-10-09T10:41:39.233Z,9.30
2022-10-09T10:44:20.549Z,9.80
2022-10-09T10:46:56.482Z,9.70
2022-10-09T10:49:33.515Z,11.70
2022-10-09T10:52:20.028Z,8.20
2022-10-09T10:54:58.574Z,8.10
2022-10-09T10:57:47.303Z,8.70
2022-10-09T11:00:19.276Z,16.00
2022-10-09T11:03:08.042Z,7.10
2022-10-09T11:05:51.961Z,9.30
2022-10-09T11:08:45.982Z,5.00
2022-10-09T11:11:24.138Z,20.10
2022-10-09T11:14:06.880Z,26.90
2022-10-09T11:16:50.506Z,31.10
2022-10-09T11:19:44.465Z,9.50
2022-10-09T11:22:29.750Z,18.00
2022-10-09T11:25:11.356Z,10.70
2022-10-09T11:27:49.306Z,6.50
2022-10-09T11:30:22.018Z,5.40
2022-10-09T11:33:01.478Z,4.80
2022-10-09T11:35:38.334Z,6.10
2022-10-09T11:38:24.420Z,5.30
2022-10-09T11:40:56.788Z,4.70
2022-10-09T11:43:48.447Z,5.00
2022-10-09T11:46:29.698Z,4.50
2022-10-09T11:49:12.040Z,4.40
2022-10-09T11:51:49.685Z,4.60
2022-10-09T11:54:24.347Z,4.60
2022-10-09T11:59:34.214Z,4.10
2022-10-09T12:02:26.659Z,4.40
2022-10-09T12:04:58.359Z,4.40
2022-10-09T12:07:36.378Z,4.60
2022-10-09T12:10:10.800Z,4.40
2022-10-09T12:12:43.644Z,4.60
2022-10-09T12:15:29.442Z,5.00
2022-10-09T12:18:01.105Z,5.10
2022-10-09T12:20:32.655Z,4.90
2022-10-09T12:25:57.440Z,5.10
2022-10-09T12:28:39.959Z,5.30
2022-10-09T12:31:20.101Z,12.40
2022-10-09T12:33:56.393Z,8.80
2022-10-09T12:36:29.476Z,7.60
2022-10-09T12:39:13.456Z,6.00
2022-10-09T12:41:47.467Z,7.40
2022-10-09T12:44:30.388Z,8.00
2022-10-09T12:47:06.490Z,5.60
2022-10-09T12:49:38.832Z,5.70
2022-10-09T12:52:17.358Z,16.90
2022-10-09T12:54:48.652Z,11.10
2022-10-09T12:57:24.036Z,6.00
2022-10-09T12:59:59.417Z,4.90
2022-10-09T13:02:32.004Z,5.00
2022-10-09T13:05:03.828Z,7.50
2022-10-09T13:07:35.130Z,7.90
2022-10-09T13:10:17.260Z,11.00
2022-10-09T13:12:55.739Z,33.10
2022-10-09T13:15:37.177Z,8.20
2022-10-09T13:18:24.029Z,6.80
2022-10-09T13:21:04.276Z,5.60
2022-10-09T13:23:37.126Z,4.90
2022-10-09T13:26:09.264Z,4.80
2022-10-09T13:28:41.623Z,4.90
2022-10-09T13:31:13.587Z,4.20
2022-10-09T13:33:44.871Z,4.00
2022-10-09T13:36:16.520Z,4.20
2022-10-09T13:38:48.904Z,3.70
2022-10-09T13:41:24.505Z,4.20
2022-10-09T13:43:56.482Z,4.10
2022-10-09T13:46:27.992Z,3.90
2022-10-09T13:48:59.258Z,3.60
2022-10-09T13:51:32.246Z,4.20
2022-10-09T13:54:03.589Z,4.00
2022-10-09T13:56:35.197Z,4.40
2022-10-09T13:59:06.992Z,4.30
2022-10-09T14:01:38.312Z,4.30
2022-10-09T14:04:09.591Z,4.20
2022-10-09T14:06:41.176Z,4.10
2022-10-09T14:09:12.739Z,4.30
2022-10-09T14:11:44.952Z,4.10
2022-10-09T14:14:16.451Z,4.30
2022-10-09T14:16:47.913Z,4.20
2022-10-09T14:19:19.208Z,3.90
2022-10-09T14:21:50.423Z,4.70
2022-10-09T14:24:21.957Z,4.80
2022-10-09T14:26:53.485Z,4.10
2022-10-09T14:29:24.685Z,4.40
2022-10-09T14:31:55.966Z,4.80
2022-10-09T14:34:27.164Z,4.50
2022-10-09T14:36:58.394Z,3.70
2022-10-09T14:39:29.775Z,4.00
2022-10-09T14:42:00.941Z,4.10
2022-10-09T14:44:32.039Z,4.80
2022-10-09T14:47:03.350Z,5.30
2022-10-09T14:49:34.678Z,4.80
2022-10-09T14:52:05.815Z,4.70
2022-10-09T14:54:37.181Z,4.50
2022-10-09T14:57:08.299Z,4.70
2022-10-09T14:59:39.670Z,5.20
2022-10-09T15:02:17.900Z,6.30
2022-10-09T15:04:49.208Z,7.30
2022-10-09T15:07:20.610Z,14.00
2022-10-09T15:09:51.939Z,8.70
2022-10-09T15:12:23.239Z,7.90
2022-10-09T15:14:54.481Z,8.30
2022-10-09T15:17:25.892Z,10.40
2022-10-09T15:19:57.274Z,6.90
2022-10-09T15:22:28.742Z,6.90
2022-10-09T15:25:00.007Z,10.00
2022-10-09T15:27:31.163Z,8.30
2022-10-09T15:30:02.495Z,7.90
2022-10-09T15:32:33.667Z,7.10
2022-10-09T15:35:05.024Z,6.10
2022-10-09T15:37:36.340Z,6.00
2022-10-09T15:40:08.425Z,6.30
2022-10-09T15:42:41.751Z,7.00
2022-10-09T15:45:13.708Z,7.30
2022-10-09T15:47:51.963Z,7.20
2022-10-09T15:50:23.255Z,7.50
2022-10-09T15:52:56.692Z,7.70
2022-10-09T15:55:27.855Z,6.50
2022-10-09T15:57:59.353Z,7.10
2022-10-09T16:00:30.662Z,8.00
2022-10-09T16:03:01.914Z,8.00
2022-10-09T16:05:37.399Z,8.20
2022-10-09T16:08:09.061Z,8.90
2022-10-09T16:10:48.663Z,8.40
2022-10-09T16:13:20.860Z,8.90
2022-10-09T16:15:52.272Z,9.80
2022-10-09T16:18:25.239Z,10.10
2022-10-09T16:20:56.503Z,9.70
2022-10-09T16:23:27.737Z,9.00
2022-10-09T16:26:03.491Z,10.80
2022-10-09T16:28:35.799Z,11.70
2022-10-09T16:31:07.372Z,12.20
2022-10-09T16:33:38.790Z,14.70
2022-10-09T16:36:42.777Z,16.90
2022-10-09T16:39:14.238Z,20.00
2022-10-09T16:41:45.491Z,21.10
2022-10-09T16:44:17.357Z,19.90
2022-10-09T16:46:48.566Z,20.70
2022-10-09T16:49:22.863Z,23.80
2022-10-09T16:51:56.368Z,24.60
2022-10-09T16:54:28.104Z,24.50
2022-10-09T16:56:59.406Z,29.90
2022-10-09T16:59:33.693Z,35.00
2022-10-09T17:02:05.012Z,31.10
2022-10-09T17:04:39.648Z,25.80
2022-10-09T17:09:48.401Z,23.50
2022-10-09T17:12:20.524Z,27.90
2022-10-09T17:14:56.108Z,30.70
2022-10-09T17:17:27.848Z,32.30
2022-10-09T17:19:59.300Z,29.30
2022-10-09T17:22:30.627Z,33.10
2022-10-09T17:25:02.696Z,31.60
2022-10-09T17:27:34.421Z,26.90
2022-10-09T17:30:07.235Z,25.10
2022-10-09T17:32:39.004Z,27.90
2022-10-09T17:35:12.267Z,30.50
2022-10-09T17:37:45.386Z,33.90
2022-10-09T17:40:17.226Z,33.80
2022-10-09T17:42:49.577Z,39.70
2022-10-09T17:45:21.133Z,33.30
2022-10-09T17:47:54.369Z,34.20
2022-10-09T17:50:27.604Z,40.30
2022-10-09T17:52:59.377Z,39.20
2022-10-09T17:55:31.806Z,37.90
2022-10-09T17:58:03.209Z,59.30
2022-10-09T18:00:34.695Z,43.00
2022-10-09T18:03:06.094Z,99.00
2022-10-09T18:05:43.786Z,44.30
2022-10-09T18:08:16.165Z,39.90
2022-10-09T18:10:47.898Z,32.90
2022-10-09T18:13:19.868Z,33.20
2022-10-09T18:15:51.912Z,27.20
2022-10-09T18:18:24.114Z,32.60
2022-10-09T18:20:56.247Z,31.90
2022-10-09T18:23:27.581Z,34.50
2022-10-09T18:25:59.595Z,32.30
2022-10-09T18:28:32.111Z,34.90
2022-10-09T18:31:05.311Z,31.00
2022-10-09T18:33:38.380Z,34.60
2022-10-09T18:36:14.813Z,35.20
2022-10-09T18:38:47.018Z,36.70
2022-10-09T18:41:19.606Z,43.00
2022-10-09T18:43:53.916Z,48.30
2022-10-09T18:46:29.187Z,47.60
2022-10-09T18:49:02.116Z,34.10
2022-10-09T18:51:34.154Z,33.50
2022-10-09T18:54:08.535Z,31.00
2022-10-09T18:56:41.468Z,30.80
2022-10-09T18:59:17.030Z,25.90
2022-10-09T19:01:49.349Z,23.60
2022-10-09T19:04:20.912Z,23.30
2022-10-09T19:06:52.798Z,25.60
2022-10-09T19:09:24.242Z,27.60
2022-10-09T19:11:56.364Z,29.10
2022-10-09T19:14:27.579Z,27.50
2022-10-09T19:16:58.807Z,21.20
2022-10-09T19:19:30.545Z,18.10
2022-10-09T19:22:01.764Z,21.10
2022-10-09T19:24:34.453Z,19.10
2022-10-09T19:27:05.897Z,15.40
2022-10-09T19:29:37.800Z,13.50
2022-10-09T19:32:09.526Z,16.00
2022-10-09T19:34:41.158Z,16.30
2022-10-09T19:37:13.135Z,16.20
2022-10-09T19:39:49.116Z,15.40
2022-10-09T19:42:20.906Z,15.70
2022-10-09T19:44:52.278Z,15.30
2022-10-09T19:47:24.410Z,15.50
2022-10-09T19:49:55.699Z,16.50
2022-10-09T19:52:27.123Z,18.90
2022-10-09T19:54:58.490Z,18.40
2022-10-09T19:57:29.758Z,20.70
2022-10-09T20:00:01.051Z,19.90
2022-10-09T20:02:35.489Z,21.50
2022-10-09T20:05:07.779Z,21.90
2022-10-09T20:07:39.030Z,18.30
2022-10-09T20:10:11.900Z,17.80
2022-10-09T20:12:45.933Z,18.50
2022-10-09T20:15:17.702Z,16.30
2022-10-09T20:17:49.439Z,16.50
2022-10-09T20:20:20.866Z,17.50
2022-10-09T20:22:52.530Z,16.60
2022-10-09T20:25:24.673Z,16.70
2022-10-09T20:27:55.992Z,16.10
2022-10-09T20:30:27.361Z,15.60
2022-10-09T20:32:59.629Z,14.80
2022-10-09T20:35:31.482Z,16.50
2022-10-09T20:38:04.065Z,15.90
2022-10-09T20:40:37.400Z,15.70
2022-10-09T20:43:08.838Z,16.00
2022-10-09T20:45:44.644Z,16.70
2022-10-09T20:48:16.281Z,16.50
2022-10-09T20:50:47.867Z,15.50
2022-10-09T20:53:19.303Z,14.90
2022-10-09T20:55:50.505Z,16.60
2022-10-09T20:58:21.766Z,16.90
2022-10-09T21:00:53.124Z,16.20
2022-10-09T21:03:24.704Z,17.70
2022-10-09T21:05:56.066Z,16.40
2022-10-09T21:08:27.377Z,18.30
2022-10-09T21:10:58.681Z,18.30
2022-10-09T21:13:29.882Z,17.10
2022-10-09T21:16:01.033Z,15.60
2022-10-09T21:18:32.454Z,19.70
2022-10-09T21:21:07.283Z,17.60
2022-10-09T21:26:12.408Z,19.10
2022-10-09T21:28:44.079Z,17.20
2022-10-09T21:31:17.299Z,16.90
2022-10-09T21:33:48.761Z,16.10
2022-10-09T21:36:29.822Z,16.20
2022-10-09T21:39:01.167Z,16.00
2022-10-09T21:41:33.225Z,17.20
2022-10-09T21:44:05.078Z,18.00
2022-10-09T21:46:37.884Z,17.30
2022-10-09T21:49:09.638Z,16.70
2022-10-09T21:51:40.868Z,17.20
2022-10-09T21:54:12.052Z,16.40
2022-10-09T21:56:43.492Z,16.90
2022-10-09T21:59:15.280Z,16.70
2022-10-09T22:01:46.680Z,15.40
2022-10-09T22:04:17.999Z,16.80
2022-10-09T22:06:49.142Z,15.80
2022-10-09T22:09:20.517Z,15.50
2022-10-09T22:11:51.760Z,15.20
2022-10-09T22:14:23.105Z,14.70
2022-10-09T22:16:54.601Z,14.20
2022-10-09T22:19:26.526Z,13.40
2022-10-09T22:21:57.797Z,13.70
2022-10-09T22:24:29.398Z,12.90
2022-10-09T22:27:00.812Z,13.90
2022-10-09T22:29:32.089Z,14.60
2022-10-09T22:32:03.282Z,14.10
2022-10-09T22:34:34.544Z,14.60
2022-10-09T22:37:05.861Z,14.40
2022-10-09T22:39:37.000Z,14.90
2022-10-09T22:42:08.266Z,15.20
2022-10-09T22:44:39.550Z,15.20
2022-10-09T22:47:10.698Z,14.50
2022-10-09T22:49:41.937Z,13.10
2022-10-09T22:52:13.233Z,15.20
2022-10-09T22:54:45.014Z,14.10
2022-10-09T22:57:16.227Z,13.50
2022-10-09T22:59:47.637Z,14.80
2022-10-09T23:02:19.138Z,11.80
2022-10-09T23:04:50.473Z,13.20
2022-10-09T23:07:21.710Z,14.30
2022-10-09T23:09:52.956Z,13.80
2022-10-09T23:12:24.221Z,14.40
2022-10-09T23:14:56.190Z,13.30
2022-10-09T23:17:27.631Z,13.70
2022-10-09T23:19:58.759Z,14.00
2022-10-09T23:22:29.917Z,12.90
2022-10-09T23:25:01.225Z,12.90
2022-10-09T23:27:32.599Z,13.10
2022-10-09T23:30:03.981Z,14.00
2022-10-09T23:32:35.315Z,12.30
2022-10-09T23:35:07.488Z,14.00
2022-10-09T23:37:38.639Z,13.60
2022-10-09T23:40:11.133Z,12.90
2022-10-09T23:42:42.395Z,12.10
2022-10-09T23:45:14.165Z,11.50
2022-10-09T23:47:45.437Z,11.70
2022-10-09T23:50:16.672Z,12.10
2022-10-09T23:52:48.139Z,11.10
2022-10-09T23:55:19.563Z,12.00
2022-10-09T23:57:51.761Z,12.00
